KRST

Rochester International Airport

Rochester, Minnesota, USA
METAR KRST 201654Z 34021G36KT 10SM SCT050 BKN060 03/M07 A3016 RMK AO2 PK WND 35040/1644 SLP224 T00281067
Observed Flight Rules
Oct-20 @ 16:54 UTC (17 minutes ago) Visual Flight Rules
Wind Visibility Clouds
340° at 21 knots
 Gusting to 36 knots
10 miles
  • Scattered at 5,000' AGL
  • Broken at 6,000' AGL
Temperatures Readings
Current 3°C / 37°F
Dewpoint -7°C / 19°F
Humidity 48%
Altimeter 30.16" Hg
Pressure 1022.4 hPa
Elevation 403
METAR KRST 201654Z 34021G36KT 10SM SCT050 BKN060 03/M07 A3016 RMK AO2 PK WND 35040/1644 SLP224 T00281067
Observed Flight Rules
Oct-20 @ 16:54 UTC
(17 minutes ago)
VFR
Wind Visibility
340° at 21 knots
 Gusting to 36 knots
10 miles
Clouds
  • Scattered at 5,000' AGL
  • Broken at 6,000' AGL
Temperature Dewpoint
3°C / 37°F -7°C / 19°F
Humidity Altimeter Pressure
48% 30.16" Hg 1022.4 hPa